createdAt,value
2022-08-26T00:02:12.768Z,100.00
2022-08-26T00:05:15.846Z,100.00
2022-08-26T00:08:20.346Z,100.00
2022-08-26T00:11:26.528Z,100.00
2022-08-26T00:14:30.758Z,100.00
2022-08-26T00:17:34.159Z,100.00
2022-08-26T00:20:36.692Z,100.00
2022-08-26T00:23:39.361Z,100.00
2022-08-26T00:26:42.620Z,100.00
2022-08-26T00:29:45.777Z,100.00
2022-08-26T00:32:48.307Z,100.00
2022-08-26T00:35:51.617Z,100.00
2022-08-26T00:38:54.167Z,100.00
2022-08-26T00:41:57.223Z,100.00
2022-08-26T00:44:59.818Z,100.00
2022-08-26T00:48:05.719Z,100.00
2022-08-26T00:51:23.248Z,100.00
2022-08-26T00:54:30.116Z,100.00
2022-08-26T00:57:34.354Z,100.00
2022-08-26T01:00:37.230Z,100.00
2022-08-26T01:03:40.946Z,100.00
2022-08-26T01:06:44.577Z,100.00
2022-08-26T01:09:48.105Z,100.00
2022-08-26T01:13:06.257Z,100.00
2022-08-26T01:16:12.965Z,100.00
2022-08-26T01:19:22.594Z,100.00
2022-08-26T01:22:55.357Z,100.00
2022-08-26T01:26:03.931Z,100.00
2022-08-26T01:29:12.866Z,100.00
2022-08-26T01:32:19.660Z,100.00
2022-08-26T01:35:22.352Z,100.00
2022-08-26T01:38:25.790Z,100.00
2022-08-26T01:41:34.081Z,100.00
2022-08-26T01:44:45.753Z,100.00
2022-08-26T01:47:56.521Z,100.00
2022-08-26T01:51:01.200Z,100.00
2022-08-26T01:54:08.401Z,100.00
2022-08-26T01:57:17.466Z,100.00
2022-08-26T02:00:20.554Z,100.00
2022-08-26T02:03:24.330Z,100.00
2022-08-26T02:06:27.267Z,100.00
2022-08-26T02:09:30.404Z,100.00
2022-08-26T02:12:33.906Z,100.00
2022-08-26T02:15:37.060Z,100.00
2022-08-26T02:18:42.690Z,100.00
2022-08-26T02:21:51.335Z,100.00
2022-08-26T02:25:02.295Z,100.00
2022-08-26T02:28:04.998Z,100.00
2022-08-26T02:31:08.144Z,100.00
2022-08-26T02:34:14.433Z,100.00
2022-08-26T02:37:18.078Z,100.00
2022-08-26T02:40:27.447Z,100.00
2022-08-26T02:43:31.643Z,100.00
2022-08-26T02:46:35.965Z,100.00
2022-08-26T02:49:44.372Z,100.00
2022-08-26T02:52:49.876Z,100.00
2022-08-26T02:55:53.235Z,100.00
2022-08-26T02:58:56.419Z,100.00
2022-08-26T03:01:59.251Z,100.00
2022-08-26T03:05:02.386Z,100.00
2022-08-26T03:08:05.314Z,100.00
2022-08-26T03:11:07.825Z,100.00
2022-08-26T03:14:13.401Z,100.00
2022-08-26T03:17:16.053Z,100.00
2022-08-26T03:20:18.975Z,100.00
2022-08-26T03:23:21.829Z,100.00
2022-08-26T03:26:24.704Z,100.00
2022-08-26T03:29:50.382Z,100.00
2022-08-26T03:32:53.362Z,100.00
2022-08-26T03:35:55.867Z,100.00
2022-08-26T03:38:59.559Z,100.00
2022-08-26T03:42:02.234Z,100.00
2022-08-26T03:45:08.292Z,100.00
2022-08-26T03:48:11.496Z,100.00
2022-08-26T03:51:19.058Z,100.00
2022-08-26T03:54:21.579Z,100.00
2022-08-26T03:57:24.339Z,100.00
2022-08-26T04:00:27.172Z,100.00
2022-08-26T04:03:49.223Z,100.00
2022-08-26T04:06:57.361Z,100.00
2022-08-26T04:10:00.199Z,100.00
2022-08-26T04:13:02.768Z,100.00
2022-08-26T04:16:07.036Z,100.00
2022-08-26T04:19:11.494Z,100.00
2022-08-26T04:22:14.413Z,100.00
2022-08-26T04:25:26.485Z,100.00
2022-08-26T04:28:29.901Z,100.00
2022-08-26T04:31:34.750Z,100.00
2022-08-26T04:34:38.245Z,100.00
2022-08-26T04:37:43.142Z,100.00
2022-08-26T04:40:46.895Z,100.00
2022-08-26T04:43:50.398Z,100.00
2022-08-26T04:46:54.868Z,100.00
2022-08-26T04:49:58.158Z,100.00
2022-08-26T04:53:02.051Z,100.00
2022-08-26T04:56:04.998Z,100.00
2022-08-26T04:59:16.691Z,100.00
2022-08-26T05:02:19.809Z,100.00
2022-08-26T05:05:22.595Z,100.00
2022-08-26T05:08:25.212Z,100.00
2022-08-26T05:11:28.260Z,100.00
2022-08-26T05:14:32.209Z,100.00
2022-08-26T05:17:37.537Z,100.00
2022-08-26T05:20:44.492Z,100.00
2022-08-26T05:23:51.297Z,100.00
2022-08-26T05:26:53.824Z,100.00
2022-08-26T05:29:57.413Z,100.00
2022-08-26T05:33:00.002Z,100.00
2022-08-26T05:36:10.549Z,100.00
2022-08-26T05:39:13.756Z,100.00
2022-08-26T05:42:16.892Z,100.00
2022-08-26T05:45:20.233Z,100.00
2022-08-26T05:48:24.376Z,100.00
2022-08-26T05:51:27.071Z,100.00
2022-08-26T05:54:34.817Z,100.00
2022-08-26T05:57:42.199Z,100.00
2022-08-26T06:00:45.878Z,100.00
2022-08-26T06:03:51.808Z,100.00
2022-08-26T06:06:54.362Z,100.00
2022-08-26T06:10:21.376Z,100.00
2022-08-26T06:13:23.882Z,100.00
2022-08-26T06:16:27.155Z,99.46
2022-08-26T06:19:33.117Z,98.04
2022-08-26T06:22:55.977Z,96.01
2022-08-26T06:25:58.975Z,92.70
2022-08-26T06:29:03.064Z,90.06
2022-08-26T06:32:06.949Z,87.96
2022-08-26T06:35:12.427Z,85.22
2022-08-26T06:38:15.606Z,84.50
2022-08-26T06:41:20.960Z,82.69
2022-08-26T06:44:23.489Z,81.87
2022-08-26T06:47:26.327Z,78.48
2022-08-26T06:50:28.803Z,76.29
2022-08-26T06:53:31.820Z,74.43
2022-08-26T06:56:40.854Z,73.29
2022-08-26T06:59:43.628Z,71.20
2022-08-26T07:02:47.222Z,65.90
2022-08-26T07:05:50.311Z,60.98
2022-08-26T07:09:05.044Z,59.86
2022-08-26T07:12:09.668Z,59.44
2022-08-26T07:15:13.563Z,55.60
2022-08-26T07:18:19.084Z,54.67
2022-08-26T07:21:26.044Z,51.02
2022-08-26T07:24:29.194Z,51.80
2022-08-26T07:27:31.780Z,51.68
2022-08-26T07:30:39.656Z,48.44
2022-08-26T07:33:44.049Z,48.61
2022-08-26T07:36:46.871Z,49.35
2022-08-26T07:39:51.455Z,48.69
2022-08-26T07:42:54.946Z,46.76
2022-08-26T07:45:57.697Z,44.96
2022-08-26T07:49:00.850Z,43.92
2022-08-26T07:52:04.657Z,45.37
2022-08-26T07:55:08.709Z,43.21
2022-08-26T07:58:11.304Z,42.83
2022-08-26T08:01:14.290Z,40.34
2022-08-26T08:04:19.440Z,41.22
2022-08-26T08:07:44.992Z,40.19
2022-08-26T08:10:48.855Z,39.37
2022-08-26T08:13:56.150Z,36.78
2022-08-26T08:16:59.747Z,35.00
2022-08-26T08:20:03.760Z,35.91
2022-08-26T08:23:07.089Z,37.58
2022-08-26T08:26:10.868Z,36.02
2022-08-26T08:29:13.655Z,35.50
2022-08-26T08:32:16.134Z,36.94
2022-08-26T08:35:23.943Z,35.86
2022-08-26T08:38:28.754Z,31.38
2022-08-26T08:41:52.237Z,32.54
2022-08-26T08:44:58.507Z,29.51
2022-08-26T08:48:12.563Z,30.59
2022-08-26T08:51:42.355Z,30.48
2022-08-26T08:54:46.699Z,28.90
2022-08-26T08:58:10.043Z,27.92
2022-08-26T09:01:28.061Z,26.93
2022-08-26T09:04:49.336Z,27.04
2022-08-26T09:08:01.402Z,27.67
2022-08-26T09:11:04.403Z,27.14
2022-08-26T09:14:08.673Z,24.42
2022-08-26T09:17:21.717Z,25.38
2022-08-26T09:20:43.983Z,23.86
2022-08-26T09:23:49.795Z,25.63
2022-08-26T09:26:56.544Z,26.17
2022-08-26T09:29:59.653Z,28.64
2022-08-26T09:33:11.036Z,30.99
2022-08-26T09:36:23.027Z,31.97
2022-08-26T09:39:33.122Z,28.41
2022-08-26T09:42:35.850Z,26.04
2022-08-26T09:45:41.680Z,26.19
2022-08-26T09:48:53.362Z,26.83
2022-08-26T09:52:11.707Z,23.99
2022-08-26T09:55:23.690Z,21.52
2022-08-26T09:58:38.640Z,21.98
2022-08-26T10:01:44.881Z,28.94
2022-08-26T10:04:54.223Z,30.97
2022-08-26T10:07:58.573Z,33.23
2022-08-26T10:11:12.109Z,35.85
2022-08-26T10:14:14.594Z,36.39
2022-08-26T10:17:34.172Z,37.68
2022-08-26T10:20:50.019Z,38.37
2022-08-26T10:23:57.303Z,36.91
2022-08-26T10:26:59.753Z,38.07
2022-08-26T10:30:10.388Z,36.83
2022-08-26T10:33:17.911Z,36.88
2022-08-26T10:37:10.738Z,36.68
2022-08-26T10:40:07.967Z,36.85
2022-08-26T10:43:32.822Z,35.85
2022-08-26T10:46:40.978Z,29.93
2022-08-26T10:49:47.664Z,26.61
2022-08-26T10:52:59.485Z,25.14
2022-08-26T10:56:15.833Z,21.58
2022-08-26T10:59:28.925Z,20.61
2022-08-26T11:02:49.226Z,19.81
2022-08-26T11:06:17.599Z,20.28
2022-08-26T11:09:52.722Z,18.21
2022-08-26T11:13:04.493Z,19.34
2022-08-26T11:16:08.349Z,20.43
2022-08-26T11:19:58.879Z,19.13
2022-08-26T11:23:13.028Z,20.38
2022-08-26T11:26:35.550Z,22.46
2022-08-26T11:30:08.543Z,20.56
2022-08-26T11:34:08.753Z,16.99
2022-08-26T11:37:17.701Z,16.08
2022-08-26T11:40:25.386Z,17.40
2022-08-26T11:43:29.869Z,16.84
2022-08-26T11:46:37.658Z,17.70
2022-08-26T11:49:41.796Z,17.80
2022-08-26T11:52:57.341Z,18.83
2022-08-26T11:56:04.222Z,17.15
2022-08-26T11:59:17.445Z,17.09
2022-08-26T12:02:33.457Z,15.70
2022-08-26T12:05:47.829Z,14.02
2022-08-26T12:08:52.039Z,14.44
2022-08-26T12:12:35.004Z,13.21
2022-08-26T12:15:41.289Z,17.39
2022-08-26T12:18:49.912Z,18.10
2022-08-26T12:22:01.548Z,17.44
2022-08-26T12:25:11.363Z,15.99
2022-08-26T12:28:14.459Z,14.25
2022-08-26T12:31:27.518Z,12.91
2022-08-26T12:34:30.789Z,12.11
2022-08-26T12:37:37.475Z,14.63
2022-08-26T12:40:46.251Z,13.00
2022-08-26T12:44:30.469Z,16.03
2022-08-26T12:47:43.512Z,15.28
2022-08-26T12:50:49.040Z,14.96
2022-08-26T12:53:55.203Z,16.23
2022-08-26T12:57:11.749Z,15.64
2022-08-26T13:00:36.905Z,14.17
2022-08-26T13:03:43.733Z,14.22
2022-08-26T13:06:55.262Z,14.00
2022-08-26T13:10:06.926Z,13.15
2022-08-26T13:13:13.029Z,14.41
2022-08-26T13:16:16.869Z,12.83
2022-08-26T13:19:22.810Z,12.07
2022-08-26T13:22:31.702Z,12.34
2022-08-26T13:25:34.650Z,12.83
2022-08-26T13:28:42.964Z,14.23
2022-08-26T13:31:46.526Z,12.81
2022-08-26T13:34:52.248Z,13.60
2022-08-26T13:37:58.289Z,14.88
2022-08-26T13:41:02.647Z,14.69
2022-08-26T13:47:27.685Z,13.13
2022-08-26T13:50:30.575Z,11.85
2022-08-26T13:53:34.905Z,13.22
2022-08-26T13:56:40.181Z,12.51
2022-08-26T13:59:43.359Z,11.86
2022-08-26T14:02:49.554Z,13.13
2022-08-26T14:05:54.567Z,14.89
2022-08-26T14:08:57.771Z,13.71
2022-08-26T14:12:04.281Z,13.63
2022-08-26T14:15:08.224Z,17.44
2022-08-26T14:18:16.891Z,19.58
2022-08-26T14:21:22.949Z,20.16
2022-08-26T14:24:27.631Z,20.18
2022-08-26T14:27:30.144Z,22.25
2022-08-26T14:30:33.792Z,23.86
2022-08-26T14:33:46.086Z,22.61
2022-08-26T14:36:51.313Z,21.14
2022-08-26T14:39:54.372Z,24.21
2022-08-26T14:42:59.332Z,25.75
2022-08-26T14:46:01.913Z,26.19
2022-08-26T14:49:10.527Z,27.09
2022-08-26T14:52:13.591Z,27.45
2022-08-26T14:55:16.451Z,27.58
2022-08-26T14:58:19.532Z,27.88
2022-08-26T15:01:22.330Z,27.90
2022-08-26T15:04:25.444Z,28.74
2022-08-26T15:07:28.698Z,29.09
2022-08-26T15:10:31.276Z,29.15
2022-08-26T15:13:34.122Z,28.96
2022-08-26T15:16:36.881Z,30.10
2022-08-26T15:19:40.194Z,30.08
2022-08-26T15:22:43.224Z,30.57
2022-08-26T15:25:46.403Z,31.28
2022-08-26T15:28:51.854Z,30.42
2022-08-26T15:31:57.643Z,31.05
2022-08-26T15:35:00.269Z,32.63
2022-08-26T15:38:03.019Z,31.47
2022-08-26T15:41:08.564Z,32.17
2022-08-26T15:44:12.472Z,32.22
2022-08-26T15:47:19.212Z,32.31
2022-08-26T15:50:24.344Z,32.83
2022-08-26T15:53:28.173Z,32.68
2022-08-26T15:56:36.426Z,33.96
2022-08-26T15:59:38.999Z,33.47
2022-08-26T16:02:41.944Z,33.88
2022-08-26T16:05:45.891Z,35.37
2022-08-26T16:08:53.354Z,35.68
2022-08-26T16:11:57.598Z,35.71
2022-08-26T16:15:01.016Z,37.74
2022-08-26T16:18:06.009Z,37.20
2022-08-26T16:21:17.030Z,38.01
2022-08-26T16:24:24.854Z,37.29
2022-08-26T16:27:29.698Z,37.48
2022-08-26T16:30:34.458Z,38.60
2022-08-26T16:33:38.256Z,39.13
2022-08-26T16:36:42.317Z,38.95
2022-08-26T16:39:47.726Z,39.07
2022-08-26T16:42:54.866Z,39.57
2022-08-26T16:45:57.607Z,39.76
2022-08-26T16:49:04.568Z,39.88
2022-08-26T16:52:08.897Z,39.52
2022-08-26T16:55:15.322Z,39.63
2022-08-26T16:58:21.974Z,39.67
2022-08-26T17:01:25.764Z,39.74
2022-08-26T17:04:29.483Z,39.83
2022-08-26T17:07:32.313Z,40.07
2022-08-26T17:10:34.962Z,40.29
2022-08-26T17:13:39.057Z,40.40
2022-08-26T17:16:41.628Z,41.09
2022-08-26T17:19:46.979Z,41.09
2022-08-26T17:22:53.726Z,40.83
2022-08-26T17:26:02.505Z,41.80
2022-08-26T17:29:09.432Z,41.72
2022-08-26T17:32:12.672Z,41.92
2022-08-26T17:35:20.422Z,42.36
2022-08-26T17:38:23.820Z,43.68
2022-08-26T17:41:27.343Z,43.50
2022-08-26T17:44:31.431Z,44.38
2022-08-26T17:47:34.684Z,45.81
2022-08-26T17:50:40.315Z,46.73
2022-08-26T17:53:43.575Z,46.92
2022-08-26T17:56:46.450Z,47.90
2022-08-26T17:59:49.133Z,48.89
2022-08-26T18:02:55.947Z,48.24
2022-08-26T18:05:58.779Z,48.23
2022-08-26T18:09:01.483Z,48.50
2022-08-26T18:12:05.028Z,48.90
2022-08-26T18:15:08.259Z,49.67
2022-08-26T18:18:12.190Z,50.25
2022-08-26T18:21:17.334Z,50.93
2022-08-26T18:24:22.320Z,52.24
2022-08-26T18:27:24.785Z,52.09
2022-08-26T18:30:27.606Z,52.69
2022-08-26T18:33:30.058Z,53.99
2022-08-26T18:36:36.801Z,55.23
2022-08-26T18:39:42.223Z,55.20
2022-08-26T18:42:46.096Z,55.50
2022-08-26T18:46:01.690Z,56.16
2022-08-26T18:49:04.494Z,56.58
2022-08-26T18:52:07.014Z,56.38
2022-08-26T18:55:10.224Z,55.70
2022-08-26T18:58:12.789Z,56.81
2022-08-26T19:01:17.126Z,57.03
2022-08-26T19:04:19.973Z,57.56
2022-08-26T19:07:22.867Z,57.25
2022-08-26T19:10:25.455Z,58.87
2022-08-26T19:13:28.302Z,58.82
2022-08-26T19:16:31.605Z,58.62
2022-08-26T19:19:34.807Z,59.62
2022-08-26T19:22:37.334Z,59.09
2022-08-26T19:25:45.924Z,59.90
2022-08-26T19:28:50.069Z,59.37
2022-08-26T19:31:52.862Z,60.35
2022-08-26T19:34:55.456Z,58.95
2022-08-26T19:37:58.370Z,59.00
2022-08-26T19:41:00.813Z,59.42
2022-08-26T19:44:09.388Z,59.73
2022-08-26T19:47:15.533Z,59.47
2022-08-26T19:50:18.392Z,59.78
2022-08-26T19:53:20.862Z,59.80
2022-08-26T19:56:23.850Z,59.41
2022-08-26T19:59:26.451Z,60.22
2022-08-26T20:02:30.915Z,60.37
2022-08-26T20:05:34.027Z,60.42
2022-08-26T20:08:38.826Z,61.08
2022-08-26T20:11:41.514Z,61.30
2022-08-26T20:14:44.374Z,61.92
2022-08-26T20:17:47.616Z,61.71
2022-08-26T20:21:10.259Z,61.72
2022-08-26T20:24:16.310Z,61.26
2022-08-26T20:27:19.000Z,61.49
2022-08-26T20:30:21.970Z,61.95
2022-08-26T20:33:24.575Z,62.06
2022-08-26T20:36:28.327Z,62.34
2022-08-26T20:39:30.801Z,62.33
2022-08-26T20:45:37.679Z,63.17
2022-08-26T20:48:40.610Z,63.55
2022-08-26T20:51:43.277Z,64.92
2022-08-26T20:54:46.078Z,64.92
2022-08-26T20:57:48.826Z,65.16
2022-08-26T21:00:52.288Z,65.55
2022-08-26T21:03:56.902Z,65.39
2022-08-26T21:06:59.621Z,66.16
2022-08-26T21:10:03.458Z,66.73
2022-08-26T21:13:07.801Z,66.83
2022-08-26T21:16:11.945Z,68.09
2022-08-26T21:19:18.086Z,67.47
2022-08-26T21:22:21.197Z,68.07
2022-08-26T21:25:24.029Z,68.07
2022-08-26T21:28:26.670Z,68.41
2022-08-26T21:31:33.995Z,69.14
2022-08-26T21:34:36.693Z,69.81
2022-08-26T21:37:39.701Z,70.84
2022-08-26T21:40:42.252Z,68.80
2022-08-26T21:43:47.144Z,68.59
2022-08-26T21:46:50.880Z,68.90
2022-08-26T21:49:54.525Z,69.58
2022-08-26T21:52:57.923Z,69.52
2022-08-26T21:56:05.424Z,70.05
2022-08-26T21:59:08.707Z,70.74
2022-08-26T22:02:11.559Z,71.54
2022-08-26T22:05:14.446Z,72.50
2022-08-26T22:08:20.137Z,72.48
2022-08-26T22:11:26.007Z,72.75
2022-08-26T22:14:30.892Z,73.97
2022-08-26T22:17:33.884Z,75.26
2022-08-26T22:20:36.422Z,75.45
2022-08-26T22:23:39.271Z,75.45
2022-08-26T22:26:42.435Z,75.30
2022-08-26T22:29:47.901Z,75.40
2022-08-26T22:32:50.412Z,75.55
2022-08-26T22:35:53.848Z,75.81
2022-08-26T22:38:57.413Z,76.61
2022-08-26T22:42:01.695Z,77.02
2022-08-26T22:45:05.921Z,77.46
2022-08-26T22:48:10.325Z,78.41
2022-08-26T22:51:13.628Z,79.71
2022-08-26T22:54:16.838Z,80.44
2022-08-26T22:57:20.912Z,81.34
2022-08-26T23:00:31.874Z,81.94
2022-08-26T23:03:35.256Z,82.45
2022-08-26T23:06:39.938Z,83.20
2022-08-26T23:09:42.650Z,84.00
2022-08-26T23:12:45.378Z,84.88
2022-08-26T23:15:48.874Z,85.02
2022-08-26T23:18:51.646Z,85.03
2022-08-26T23:21:54.393Z,85.24
2022-08-26T23:24:57.896Z,85.16
2022-08-26T23:28:02.764Z,85.27
2022-08-26T23:31:06.962Z,85.95
2022-08-26T23:34:28.832Z,85.86
2022-08-26T23:37:36.440Z,86.57
2022-08-26T23:40:41.907Z,86.55
2022-08-26T23:43:45.105Z,86.99
2022-08-26T23:46:47.674Z,86.70
2022-08-26T23:49:50.358Z,87.09
2022-08-26T23:53:08.769Z,87.29
2022-08-26T23:56:16.342Z,87.02
2022-08-26T23:59:18.953Z,87.57
